Time;durP1;ratioP1;P1;durP2;ratioP2;P2;SDS_P1;SDS_P2;PMS_P1;PMS_P2;Temp;Humidity;BMP_temperature;BMP_pressure;BME280_temperature;BME280_humidity;BME280_pressure;Samples;Min_cycle;Max_cycle;Signal;HPM_P1;HPM_P2
2022/11/22 00:02:05;;;;;;;24.75;12.70;;;;;;;-2.70;67.14;99663.03;5035878;28;20022;-52
2022/11/22 00:04:30;;;;;;;27.67;14.25;;;;;;;-2.63;66.73;99666.31;5035785;28;20464;-56
2022/11/22 00:06:55;;;;;;;28.33;14.52;;;;;;;-2.66;67.36;99666.38;5035584;28;20120;-54
2022/11/22 00:09:21;;;;;;;28.75;12.43;;;;;;;-2.51;66.51;99672.97;5041781;28;20029;-53
2022/11/22 00:11:46;;;;;;;28.30;13.32;;;;;;;-2.57;66.56;99679.25;5055253;28;20450;-53
2022/11/22 00:14:12;;;;;;;28.38;14.27;;;;;;;-2.72;67.39;99650.84;5055438;28;20032;-49
2022/11/22 00:16:37;;;;;;;28.52;13.90;;;;;;;-2.73;67.61;99650.00;5055799;28;20052;-49
2022/11/22 00:19:03;;;;;;;22.60;11.80;;;;;;;-2.54;67.26;99645.06;5050716;28;20053;-51
2022/11/22 00:21:28;;;;;;;25.15;11.02;;;;;;;-2.44;66.96;99645.66;5035395;28;20397;-49
2022/11/22 00:23:56;;;;;;;28.15;13.48;;;;;;;-2.51;66.97;99650.22;5055207;28;20103;-55
2022/11/22 00:26:25;;;;;;;25.33;11.93;;;;;;;-2.57;67.09;99639.06;5055295;28;20119;-51
2022/11/22 00:28:51;;;;;;;29.80;13.30;;;;;;;-2.35;66.28;99639.28;5052388;28;20396;-51
2022/11/22 00:31:16;;;;;;;27.10;13.77;;;;;;;-2.46;66.90;99644.84;5033921;28;20033;-54
2022/11/22 00:33:42;;;;;;;19.88;9.68;;;;;;;-2.67;66.40;99604.38;5034176;28;20052;-50
2022/11/22 00:36:07;;;;;;;29.52;14.68;;;;;;;-2.55;67.62;99645.97;5035307;28;20041;-48
2022/11/22 00:38:33;;;;;;;28.33;13.65;;;;;;;-2.78;67.36;99594.22;5036078;28;20439;-54
2022/11/22 00:40:58;;;;;;;27.70;12.35;;;;;;;-2.41;66.96;99645.56;5054033;28;20166;-54
2022/11/22 00:43:24;;;;;;;29.95;13.48;;;;;;;-2.42;66.84;99640.34;5054679;28;20057;-54
2022/11/22 00:45:49;;;;;;;27.48;13.60;;;;;;;-2.57;67.43;99624.19;5053776;28;20371;-48
2022/11/22 00:48:16;;;;;;;28.10;13.27;;;;;;;-2.28;66.50;99630.31;5052662;28;20049;-49
2022/11/22 00:50:42;;;;;;;23.98;12.50;;;;;;;-2.37;66.69;99630.63;5053575;28;20048;-55
2022/11/22 00:53:07;;;;;;;27.20;13.30;;;;;;;-2.43;67.38;99607.19;5053948;28;20036;-52
2022/11/22 00:55:33;;;;;;;24.65;11.88;;;;;;;-2.37;66.82;99609.63;5054752;28;20039;-52
2022/11/22 00:57:59;;;;;;;24.08;10.95;;;;;;;-2.27;66.27;99595.31;5053987;28;20037;-54
2022/11/22 01:00:24;;;;;;;24.58;10.13;;;;;;;-2.31;66.36;99610.28;5036029;28;20091;-52
2022/11/22 01:02:50;;;;;;;26.70;12.20;;;;;;;-2.31;66.75;99614.69;5034386;28;20061;-51
2022/11/22 01:05:16;;;;;;;27.92;11.60;;;;;;;-2.22;66.50;99598.66;5034293;28;20029;-54
2022/11/22 01:07:43;;;;;;;27.38;13.23;;;;;;;-2.41;67.27;99592.25;5034736;28;20383;-53
2022/11/22 01:10:08;;;;;;;24.80;12.15;;;;;;;-2.47;67.91;99599.41;5049693;28;20056;-53
2022/11/22 01:12:34;;;;;;;23.75;10.30;;;;;;;-2.32;67.67;99602.47;5054182;28;20071;-55
2022/11/22 01:14:59;;;;;;;17.80;7.57;;;;;;;-2.19;66.61;99584.59;5054090;28;20116;-53
2022/11/22 01:17:25;;;;;;;26.60;13.07;;;;;;;-2.22;66.56;99588.16;5052257;28;20432;-49
2022/11/22 01:19:51;;;;;;;27.92;12.70;;;;;;;-2.22;67.12;99572.41;5040862;28;20033;-49
2022/11/22 01:22:16;;;;;;;30.80;14.02;;;;;;;-2.15;66.45;99582.75;5033042;28;20087;-54
2022/11/22 01:24:42;;;;;;;31.73;14.20;;;;;;;-2.31;67.40;99577.97;5034346;28;20033;-52
2022/11/22 01:27:07;;;;;;;20.48;8.48;;;;;;;-2.25;65.89;99538.44;5033484;28;20033;-52
2022/11/22 01:29:33;;;;;;;28.95;13.75;;;;;;;-2.12;66.34;99583.47;5043727;28;20147;-52
2022/11/22 01:31:58;;;;;;;29.25;13.10;;;;;;;-2.34;67.08;99575.44;5053804;28;20104;-52
2022/11/22 01:34:23;;;;;;;27.50;13.10;;;;;;;-2.44;66.52;99530.31;5053943;28;20131;-52
2022/11/22 01:36:49;;;;;;;29.05;13.38;;;;;;;-2.23;66.82;99581.19;5053459;28;20501;-51
2022/11/22 01:39:14;;;;;;;32.85;13.88;;;;;;;-2.23;67.40;99570.72;5045843;28;20040;-56
2022/11/22 01:41:40;;;;;;;30.85;14.15;;;;;;;-2.30;67.66;99563.94;5033909;28;20029;-52
2022/11/22 01:44:23;;;;;;;29.00;13.20;;;;;;;-2.11;67.32;99561.59;5034891;28;20037;-49
2022/11/22 01:46:53;;;;;;;28.73;13.88;;;;;;;-2.13;66.75;99559.94;5033579;28;20083;-54
2022/11/22 01:49:43;;;;;;;23.85;10.38;;;;;;;-1.79;66.17;99553.56;5033329;28;20052;-49
2022/11/22 01:52:14;;;;;;;35.50;14.45;;;;;;;-2.04;66.59;99554.38;5033757;28;20452;-52
2022/11/22 01:54:43;;;;;;;27.88;12.45;;;;;;;-2.35;66.29;99508.19;5051720;28;20033;-52
2022/11/22 01:57:17;;;;;;;26.48;10.35;;;;;;;-2.19;67.29;99529.50;5052865;28;20040;-56
2022/11/22 01:59:47;;;;;;;35.15;15.38;;;;;;;-2.12;66.85;99533.63;5038755;28;20099;-53
2022/11/22 02:02:13;;;;;;;31.92;13.38;;;;;;;-2.22;67.30;99538.31;5033853;28;20025;-54
2022/11/22 02:04:40;;;;;;;19.85;8.60;;;;;;;-1.99;66.73;99520.13;5033244;28;20041;-55
2022/11/22 02:07:17;;;;;;;33.58;14.38;;;;;;;-2.14;67.44;99516.25;5035392;28;20140;-49
2022/11/22 02:09:45;;;;;;;21.58;10.30;;;;;;;-1.98;66.62;99517.44;5039866;28;20037;-51
2022/11/22 02:12:11;;;;;;;29.83;14.77;;;;;;;-2.21;67.39;99505.94;5033243;28;20025;-52
2022/11/22 02:14:39;;;;;;;36.10;15.98;;;;;;;-2.33;67.86;99506.38;5032793;28;20080;-52
2022/11/22 02:17:04;;;;;;;29.45;11.48;;;;;;;-2.36;67.84;99499.44;5032892;28;20040;-49
2022/11/22 02:19:39;;;;;;;20.40;9.68;;;;;;;-2.06;67.40;99488.00;5044140;28;20028;-49
2022/11/22 02:22:43;;;;;;;23.58;10.15;;;;;;;-2.08;67.39;99495.91;5052864;28;20336;-50
2022/11/22 02:25:21;;;;;;;24.73;11.05;;;;;;;-2.04;67.42;99486.16;5051644;28;20102;-51
2022/11/22 02:27:47;;;;;;;28.95;13.05;;;;;;;-2.14;67.57;99482.16;5052945;28;20347;-49
2022/11/22 02:30:13;;;;;;;30.27;12.30;;;;;;;-2.12;67.39;99472.47;5035808;28;20033;-55
2022/11/22 02:32:38;;;;;;;31.02;13.20;;;;;;;-2.33;67.84;99438.19;5044244;28;20462;-54
2022/11/22 02:35:27;;;;;;;22.27;11.07;;;;;;;-2.07;68.62;99471.38;5035009;28;20052;-51
2022/11/22 02:38:02;;;;;;;29.80;12.20;;;;;;;-2.13;69.44;99458.47;5052507;28;20407;-54
2022/11/22 02:40:33;;;;;;;35.35;15.48;;;;;;;-2.15;69.44;99457.69;5033693;28;20367;-54
2022/11/22 02:43:01;;;;;;;18.40;8.55;;;;;;;-1.94;69.65;99444.72;5031876;28;20045;-55
2022/11/22 02:45:28;;;;;;;31.63;14.45;;;;;;;-2.08;68.94;99455.72;5032355;28;20540;-54
2022/11/22 02:48:04;;;;;;;31.30;13.07;;;;;;;-2.00;69.62;99453.66;5032451;28;20075;-54
2022/11/22 02:50:29;;;;;;;30.00;14.18;;;;;;;-1.99;68.97;99444.88;5032608;28;20033;-53
2022/11/22 02:52:55;;;;;;;30.25;13.75;;;;;;;-2.01;69.44;99449.31;5032391;28;20083;-53
2022/11/22 02:55:20;;;;;;;25.80;11.95;;;;;;;-1.90;68.48;99446.31;5032215;28;20427;-53
2022/11/22 02:57:45;;;;;;;26.88;13.90;;;;;;;-1.99;68.67;99437.00;5032594;28;20033;-50
2022/11/22 03:00:11;;;;;;;31.27;12.75;;;;;;;-2.05;69.34;99431.97;5048082;28;20085;-50
2022/11/22 03:02:37;;;;;;;33.88;15.00;;;;;;;-2.04;69.31;99428.44;5051985;28;20131;-54
2022/11/22 03:05:02;;;;;;;31.60;15.23;;;;;;;-2.04;68.89;99415.34;5032246;28;20373;-52
2022/11/22 03:07:28;;;;;;;27.73;14.00;;;;;;;-2.02;68.40;99421.38;5032282;28;20037;-51
2022/11/22 03:09:53;;;;;;;34.25;14.80;;;;;;;-2.12;68.51;99399.84;5045596;28;20064;-49
2022/11/22 03:12:19;;;;;;;29.05;13.63;;;;;;;-2.00;68.70;99416.94;5051682;28;20422;-51
2022/11/22 03:14:44;;;;;;;26.73;13.75;;;;;;;-1.97;68.79;99408.94;5052118;28;20024;-51
2022/11/22 03:17:10;;;;;;;28.65;14.15;;;;;;;-1.92;68.26;99407.03;5052071;28;20045;-54
2022/11/22 03:19:35;;;;;;;30.17;12.23;;;;;;;-1.88;68.07;99403.38;5040814;28;20457;-52
2022/11/22 03:22:00;;;;;;;25.92;12.13;;;;;;;-1.79;68.01;99417.06;5032291;28;20041;-50
2022/11/22 03:24:26;;;;;;;28.50;11.65;;;;;;;-1.94;67.90;99387.00;5032143;28;20025;-50
2022/11/22 03:26:51;;;;;;;29.88;14.50;;;;;;;-1.79;67.95;99393.47;5032131;28;20139;-53
2022/11/22 03:29:17;;;;;;;18.58;7.93;;;;;;;-1.79;68.31;99401.34;5042040;28;20034;-55
2022/11/22 03:31:43;;;;;;;15.18;8.07;;;;;;;-1.73;68.35;99383.59;5032160;28;20041;-55
2022/11/22 03:34:11;;;;;;;29.83;13.88;;;;;;;-1.79;68.19;99383.84;5031917;28;20041;-53
2022/11/22 03:36:36;;;;;;;29.10;13.48;;;;;;;-1.83;68.40;99376.13;5031953;28;20061;-51
2022/11/22 03:39:01;;;;;;;30.48;13.05;;;;;;;-1.90;68.60;99375.47;5040976;28;20063;-51
2022/11/22 03:41:27;;;;;;;25.23;12.85;;;;;;;-2.03;68.18;99352.34;5051922;28;20072;-53
2022/11/22 03:43:52;;;;;;;26.55;12.30;;;;;;;-1.84;68.61;99364.75;5051551;28;20024;-52
2022/11/22 03:46:18;;;;;;;28.25;13.13;;;;;;;-1.77;68.54;99368.88;5052390;28;20115;-50
2022/11/22 03:48:45;;;;;;;32.35;14.60;;;;;;;-1.93;69.30;99378.22;5051368;28;20467;-54
2022/11/22 03:51:10;;;;;;;25.58;11.55;;;;;;;-1.85;68.80;99363.03;5051815;28;20060;-50
2022/11/22 03:53:36;;;;;;;26.45;13.05;;;;;;;-1.79;68.65;99380.34;5034289;28;20065;-52
2022/11/22 03:56:03;;;;;;;25.80;12.52;;;;;;;-1.69;68.58;99371.19;5032246;28;20044;-51
2022/11/22 03:58:28;;;;;;;20.95;9.65;;;;;;;-1.80;69.08;99353.25;5035537;28;20049;-54
2022/11/22 04:00:55;;;;;;;22.58;9.15;;;;;;;-1.54;68.36;99372.41;5051608;28;20490;-52
2022/11/22 04:03:20;;;;;;;22.70;10.90;;;;;;;-1.76;68.76;99333.84;5052082;28;20406;-49
2022/11/22 04:05:45;;;;;;;32.65;13.45;;;;;;;-1.72;69.04;99345.06;5051970;28;20030;-51
2022/11/22 04:08:11;;;;;;;22.10;9.05;;;;;;;-1.45;68.66;99364.16;5050309;28;20044;-53
2022/11/22 04:10:36;;;;;;;28.40;12.00;;;;;;;-1.59;68.50;99350.69;5031887;28;20034;-53
2022/11/22 04:13:02;;;;;;;28.05;13.45;;;;;;;-1.69;68.66;99344.09;5031580;28;20071;-52
2022/11/22 04:15:27;;;;;;;27.77;13.18;;;;;;;-1.91;68.75;99298.53;5032159;28;20080;-52
2022/11/22 04:17:53;;;;;;;27.33;13.27;;;;;;;-1.90;69.55;99325.63;5048326;28;20033;-54
2022/11/22 04:23:12;;;;;;;18.45;7.80;;;;;;;-1.60;69.62;99338.50;5032642;28;20025;-51
2022/11/22 04:25:40;;;;;;;22.23;9.05;;;;;;;-1.86;69.93;99295.72;5035216;28;20444;-52
2022/11/22 04:28:07;;;;;;;27.75;13.00;;;;;;;-1.77;69.95;99305.03;5035233;28;20034;-51
2022/11/22 04:33:18;;;;;;;23.90;8.15;;;;;;;-1.56;69.10;99316.47;5055013;28;20048;-57
2022/11/22 04:35:44;;;;;;;28.05;13.35;;;;;;;-1.76;69.70;99314.59;5055258;28;20033;-53
2022/11/22 04:38:11;;;;;;;25.95;10.95;;;;;;;-1.67;69.24;99306.41;5050819;28;20052;-52
2022/11/22 04:40:37;;;;;;;26.92;12.82;;;;;;;-1.72;69.63;99324.06;5036693;28;20047;-50
2022/11/22 04:45:48;;;;;;;26.52;10.95;;;;;;;-1.77;69.57;99315.53;5054767;28;20056;-53
2022/11/22 04:48:14;;;;;;;26.25;12.65;;;;;;;-1.77;69.47;99311.13;5049972;28;20029;-52
2022/11/22 04:53:25;;;;;;;21.45;8.77;;;;;;;-1.74;69.07;99304.91;5034964;28;20104;-50
2022/11/22 04:55:51;;;;;;;27.52;11.35;;;;;;;-1.80;69.08;99271.03;5034775;28;20108;-53
2022/11/22 04:58:17;;;;;;;27.05;12.75;;;;;;;-1.65;69.43;99293.19;5038569;28;20029;-55
2022/11/22 05:00:43;;;;;;;25.30;10.98;;;;;;;-1.73;69.42;99278.63;5054395;28;20065;-53
2022/11/22 05:03:09;;;;;;;21.52;9.30;;;;;;;-1.59;69.15;99267.56;5054437;28;20047;-51
2022/11/22 05:05:39;;;;;;;23.98;10.43;;;;;;;-1.40;68.89;99265.97;5047304;28;20125;-50
2022/11/22 05:08:06;;;;;;;28.35;12.52;;;;;;;-1.45;68.93;99256.50;5036628;28;20057;-52
2022/11/22 05:10:55;;;;;;;22.10;9.30;;;;;;;-1.51;69.53;99258.53;5053286;28;20033;-52
2022/11/22 05:13:19;;;;;;;14.88;6.65;;;;;;;-1.54;69.43;99220.13;5034721;28;20033;-52
2022/11/22 05:15:44;;;;;;;23.90;11.40;;;;;;;-1.45;69.39;99255.63;5033981;28;20029;-52
2022/11/22 05:18:10;;;;;;;23.13;9.75;;;;;;;-1.40;69.60;99263.34;5037083;28;20029;-62
2022/11/22 05:20:35;;;;;;;22.08;10.98;;;;;;;-1.42;69.84;99245.03;5053762;28;20059;-50
2022/11/22 05:25:46;;;;;;;22.77;7.10;;;;;;;-1.08;69.77;99243.63;5054224;28;20443;-52
2022/11/22 05:28:11;;;;;;;20.02;8.10;;;;;;;-1.13;70.02;99250.88;5050333;28;20029;-49
2022/11/22 05:30:40;;;;;;;19.58;10.50;;;;;;;-1.21;70.07;99239.78;5033700;28;20412;-54
2022/11/22 05:33:06;;;;;;;18.42;7.82;;;;;;;-1.16;69.86;99253.63;5033912;28;20049;-49
2022/11/22 05:35:32;;;;;;;21.10;10.07;;;;;;;-1.22;70.29;99230.22;5033506;28;20037;-54
2022/11/22 05:37:58;;;;;;;20.35;8.10;;;;;;;-1.13;69.97;99224.59;5037092;28;20057;-60
2022/11/22 05:40:24;;;;;;;16.75;6.05;;;;;;;-1.07;70.18;99239.25;5053788;28;20120;-58
2022/11/22 05:42:49;;;;;;;17.13;8.68;;;;;;;-1.49;70.41;99162.16;5053819;28;20106;-55
2022/11/22 05:45:15;;;;;;;22.05;10.57;;;;;;;-1.07;70.53;99231.38;5053586;28;20076;-56
2022/11/22 05:47:41;;;;;;;21.85;10.60;;;;;;;-1.08;70.20;99230.50;5051265;28;20449;-62
2022/11/22 05:50:07;;;;;;;18.33;8.65;;;;;;;-1.02;70.41;99224.97;5033785;28;20034;-57
2022/11/22 05:52:32;;;;;;;21.52;8.38;;;;;;;-0.87;70.00;99218.19;5035898;28;20029;-55
2022/11/22 05:54:58;;;;;;;18.35;8.15;;;;;;;-0.89;70.41;99221.84;5053567;28;20108;-57
2022/11/22 05:57:23;;;;;;;15.65;9.02;;;;;;;-0.88;69.95;99221.75;5053319;28;20033;-57
2022/11/22 05:59:49;;;;;;;17.40;8.52;;;;;;;-0.85;69.91;99206.78;5033003;28;20427;-58
2022/11/22 06:02:14;;;;;;;15.95;7.22;;;;;;;-0.80;70.20;99205.66;5033472;28;20037;-56
2022/11/22 06:04:40;;;;;;;22.27;9.45;;;;;;;-0.83;70.28;99197.91;5033388;28;20037;-57
2022/11/22 06:07:05;;;;;;;17.88;9.23;;;;;;;-0.77;70.38;99208.16;5032942;28;20026;-60
2022/11/22 06:09:31;;;;;;;16.17;7.35;;;;;;;-0.67;70.05;99199.88;5049653;28;20040;-55
2022/11/22 06:11:57;;;;;;;18.65;8.85;;;;;;;-0.77;70.55;99189.75;5053687;28;20036;-56
2022/11/22 06:14:22;;;;;;;16.13;8.55;;;;;;;-0.66;70.75;99193.69;5053134;28;20107;-54
2022/11/22 06:16:50;;;;;;;17.83;8.18;;;;;;;-0.74;70.78;99197.50;5051497;28;20037;-55
2022/11/22 06:19:16;;;;;;;15.32;7.07;;;;;;;-0.62;70.68;99185.56;5047106;28;20079;-58
2022/11/22 06:21:41;;;;;;;13.57;6.72;;;;;;;-0.64;70.48;99187.41;5052165;28;20063;-55
2022/11/22 06:24:07;;;;;;;16.95;8.68;;;;;;;-0.70;71.05;99186.88;5052755;28;20060;-56
2022/11/22 06:26:34;;;;;;;12.00;6.20;;;;;;;-0.39;69.77;99196.84;5052705;28;20494;-56
2022/11/22 06:28:59;;;;;;;15.68;7.40;;;;;;;-0.47;69.98;99183.19;5041016;28;20025;-55
2022/11/22 06:31:26;;;;;;;13.77;6.07;;;;;;;-0.31;69.75;99200.00;5033156;28;20037;-55
2022/11/22 06:33:53;;;;;;;14.13;6.82;;;;;;;-0.51;70.45;99173.75;5031898;28;20037;-52
2022/11/22 06:36:24;;;;;;;15.68;8.10;;;;;;;-0.52;71.23;99170.25;5032656;28;20042;-57
2022/11/22 06:38:50;;;;;;;8.45;4.07;;;;;;;-0.36;69.66;99148.50;5041665;28;20068;-58
2022/11/22 06:41:18;;;;;;;12.63;7.63;;;;;;;-0.31;70.28;99154.41;5033630;28;20037;-56
2022/11/22 06:43:45;;;;;;;13.40;6.88;;;;;;;-0.31;71.33;99162.28;5052241;28;20028;-57
2022/11/22 06:46:12;;;;;;;12.35;6.20;;;;;;;-0.23;71.02;99162.81;5051213;28;20052;-55
2022/11/22 06:48:39;;;;;;;10.05;4.57;;;;;;;0.08;70.01;99150.81;5049162;28;20055;-58
2022/11/22 06:51:09;;;;;;;10.20;5.70;;;;;;;0.00;69.55;99150.34;5034261;28;20041;-57
2022/11/22 06:53:35;;;;;;;10.93;6.32;;;;;;;-0.12;69.99;99159.66;5032387;28;20422;-58
2022/11/22 06:56:02;;;;;;;12.25;6.13;;;;;;;-0.02;70.38;99167.94;5032365;28;20045;-58
2022/11/22 06:58:28;;;;;;;11.75;6.60;;;;;;;-0.09;70.01;99143.72;5041848;28;20028;-58
2022/11/22 07:00:59;;;;;;;15.93;6.85;;;;;;;-0.15;70.91;99146.63;5047121;28;20410;-55
2022/11/22 07:03:24;;;;;;;14.73;6.53;;;;;;;-0.08;70.37;99140.19;5039150;28;20345;-61
2022/11/22 07:05:50;;;;;;;12.68;4.07;;;;;;;0.03;70.10;99154.59;5046166;28;20048;-61
2022/11/22 07:08:16;;;;;;;15.52;7.78;;;;;;;-0.08;70.53;99152.47;5037929;28;20025;-60
2022/11/22 07:10:41;;;;;;;11.65;6.35;;;;;;;0.02;69.97;99148.47;5031634;28;20057;-57
2022/11/22 07:13:07;;;;;;;12.98;5.57;;;;;;;-0.09;70.23;99129.72;5031889;28;20091;-61
2022/11/22 07:15:32;;;;;;;9.25;4.07;;;;;;;0.05;69.84;99136.94;5033596;28;20409;-63
2022/11/22 07:17:58;;;;;;;12.35;6.30;;;;;;;-0.08;70.44;99149.84;5049365;28;20033;-57
2022/11/22 07:20:23;;;;;;;11.80;5.85;;;;;;;0.01;69.78;99140.66;5050065;28;20067;-54
2022/11/22 07:22:48;;;;;;;9.93;5.18;;;;;;;-0.01;70.03;99138.06;5052573;28;20107;-54
2022/11/22 07:25:14;;;;;;;11.95;5.68;;;;;;;0.00;70.41;99124.03;5044026;28;20038;-52
2022/11/22 07:27:39;;;;;;;10.27;5.00;;;;;;;-0.03;70.17;99145.19;5034627;28;20055;-57
2022/11/22 07:30:05;;;;;;;10.43;5.18;;;;;;;-0.04;70.52;99123.31;5050801;28;20029;-58
2022/11/22 07:32:31;;;;;;;9.35;5.05;;;;;;;0.08;69.67;99116.59;5051896;28;20451;-59
2022/11/22 07:34:56;;;;;;;10.20;5.75;;;;;;;-0.04;70.67;99122.44;5051211;28;20036;-57
2022/11/22 07:37:22;;;;;;;13.45;5.72;;;;;;;0.01;71.11;99124.84;5047606;28;20040;-53
2022/11/22 07:39:47;;;;;;;7.75;4.30;;;;;;;0.26;70.06;99129.78;5031706;28;20041;-58
2022/11/22 07:42:12;;;;;;;11.02;5.47;;;;;;;0.18;69.70;99130.16;5031983;28;20036;-54
2022/11/22 07:44:38;;;;;;;8.90;4.57;;;;;;;0.07;69.88;99080.66;5031659;28;20445;-53
2022/11/22 07:47:04;;;;;;;8.10;4.85;;;;;;;0.19;70.84;99137.13;5048248;28;20041;-55
2022/11/22 07:49:29;;;;;;;8.45;4.25;;;;;;;0.38;69.86;99129.16;5052176;28;20033;-57
2022/11/22 07:51:54;;;;;;;9.25;4.70;;;;;;;0.24;69.81;99106.16;5051563;28;20033;-55
2022/11/22 07:54:20;;;;;;;8.50;4.45;;;;;;;0.32;70.19;99123.34;5051722;28;20064;-57
2022/11/22 07:56:45;;;;;;;10.02;4.32;;;;;;;0.34;70.06;99101.28;5043856;28;20135;-58
2022/11/22 07:59:11;;;;;;;8.85;3.88;;;;;;;0.35;69.95;99105.63;5047020;28;20060;-57
2022/11/22 08:01:36;;;;;;;9.85;4.22;;;;;;;0.47;70.16;99117.31;5044799;28;20378;-56
2022/11/22 08:04:01;;;;;;;9.48;5.05;;;;;;;0.34;70.54;99117.09;5053338;28;20527;-62
2022/11/22 08:06:27;;;;;;;8.40;4.50;;;;;;;0.38;70.52;99110.72;5055397;28;20031;-57
2022/11/22 08:08:52;;;;;;;7.95;4.22;;;;;;;0.52;70.25;99114.47;5055557;28;20033;-56
2022/11/22 08:11:18;;;;;;;12.77;4.65;;;;;;;0.34;70.75;99114.44;5054014;28;20032;-53
2022/11/22 08:13:43;;;;;;;8.27;4.78;;;;;;;0.32;71.70;99110.19;5049138;28;20025;-56
2022/11/22 08:16:12;;;;;;;6.40;3.92;;;;;;;0.42;71.61;99109.66;5051651;28;20029;-57
2022/11/22 08:18:38;;;;;;;9.27;4.97;;;;;;;0.51;71.16;99107.50;5047601;28;20423;-54
2022/11/22 08:21:09;;;;;;;6.07;3.17;;;;;;;0.66;70.73;99111.13;5044236;28;20357;-56
2022/11/22 08:23:35;;;;;;;6.68;4.35;;;;;;;0.67;70.64;99110.19;5047521;28;20043;-57
2022/11/22 08:26:01;;;;;;;7.47;3.85;;;;;;;0.79;69.69;99108.72;5054161;28;20033;-57
2022/11/22 08:28:27;;;;;;;8.75;4.78;;;;;;;0.64;70.43;99095.38;5036927;28;20033;-55
2022/11/22 08:31:04;;;;;;;8.43;4.22;;;;;;;0.70;70.51;99102.13;5043011;28;20447;-55
2022/11/22 08:33:30;;;;;;;9.40;4.03;;;;;;;0.49;70.55;99072.47;5044447;28;20047;-61
2022/11/22 08:35:55;;;;;;;8.18;4.03;;;;;;;0.59;71.16;99099.19;5053041;28;20247;-53
2022/11/22 08:38:21;;;;;;;9.70;4.25;;;;;;;0.51;71.79;99102.22;5053801;28;20029;-54
2022/11/22 08:40:46;;;;;;;7.80;3.53;;;;;;;0.65;71.16;99098.88;5051929;28;20033;-55
2022/11/22 08:43:12;;;;;;;10.20;4.68;;;;;;;0.58;71.73;99087.81;5046188;28;20025;-57
2022/11/22 08:45:38;;;;;;;8.98;4.05;;;;;;;0.60;71.22;99092.97;5034218;28;20341;-54
2022/11/22 08:48:03;;;;;;;7.65;4.13;;;;;;;0.59;71.83;99078.97;5044321;28;20103;-55
2022/11/22 08:50:29;;;;;;;9.15;4.40;;;;;;;0.74;71.06;99085.22;5041959;28;20045;-59
2022/11/22 08:52:54;;;;;;;8.50;3.75;;;;;;;0.74;71.37;99065.94;5047845;28;20075;-55
2022/11/22 08:55:20;;;;;;;9.45;4.45;;;;;;;0.66;72.11;99080.34;5052472;28;20021;-57
2022/11/22 08:57:45;;;;;;;8.10;4.40;;;;;;;0.67;71.96;99086.47;5041794;28;20034;-56
2022/11/22 09:00:11;;;;;;;6.57;3.95;;;;;;;0.77;71.43;99065.78;5034832;28;20036;-58
2022/11/22 09:02:36;;;;;;;9.70;4.03;;;;;;;0.62;71.76;99039.28;5053302;28;20380;-61
2022/11/22 09:05:02;;;;;;;8.60;3.55;;;;;;;0.94;71.43;99065.72;5048389;28;20345;-59
2022/11/22 09:07:30;;;;;;;5.38;2.88;;;;;;;1.00;71.21;99077.72;5046434;28;20371;-59
2022/11/22 09:09:55;;;;;;;8.65;3.83;;;;;;;1.10;70.79;99093.91;5046329;28;20036;-59
2022/11/22 09:12:21;;;;;;;7.93;3.35;;;;;;;1.05;71.35;99078.31;5037759;28;20028;-59
2022/11/22 09:14:46;;;;;;;6.43;3.88;;;;;;;0.93;71.37;99057.91;5034035;28;20036;-60
2022/11/22 09:17:12;;;;;;;6.15;3.40;;;;;;;1.01;70.93;99060.97;5038384;28;20131;-60
2022/11/22 09:19:37;;;;;;;5.80;3.90;;;;;;;0.96;71.77;99065.66;5051154;28;20056;-56
2022/11/22 09:22:02;;;;;;;8.13;4.13;;;;;;;1.07;71.35;99062.44;5033646;28;20042;-63
2022/11/22 09:24:28;;;;;;;5.75;3.10;;;;;;;1.14;71.22;99064.66;5046408;28;20061;-57
2022/11/22 09:26:53;;;;;;;9.23;3.60;;;;;;;1.09;71.38;99068.47;5040069;28;20041;-62
2022/11/22 09:29:19;;;;;;;6.57;3.90;;;;;;;0.83;71.75;99050.47;5039625;28;20360;-61
2022/11/22 09:31:44;;;;;;;5.03;2.88;;;;;;;1.10;71.36;99065.78;5036068;28;20045;-57
2022/11/22 09:34:09;;;;;;;7.70;3.60;;;;;;;1.04;71.95;99063.44;5047758;28;20033;-58
2022/11/22 09:36:35;;;;;;;8.32;3.38;;;;;;;0.98;72.60;99064.66;5039477;28;20056;-66
2022/11/22 09:39:01;;;;;;;9.40;4.28;;;;;;;1.05;71.99;99053.75;5040648;28;20029;-60
2022/11/22 09:41:44;;;;;;;4.38;2.55;;;;;;;1.23;71.81;99058.06;5048120;28;20047;-60
2022/11/22 09:44:43;;;;;;;7.43;3.30;;;;;;;1.17;72.00;99060.16;5041221;28;20091;-56
2022/11/22 09:47:33;;;;;;;7.05;3.30;;;;;;;1.23;71.41;99058.06;5031790;28;20452;-59
2022/11/22 09:50:12;;;;;;;7.22;3.70;;;;;;;1.11;72.25;99061.34;5033249;28;20033;-58
2022/11/22 09:52:46;;;;;;;7.97;3.15;;;;;;;1.17;72.10;99074.19;5033170;28;20368;-61
2022/11/22 09:55:24;;;;;;;5.45;3.53;;;;;;;1.16;72.04;99056.66;5032611;28;20098;-60
2022/11/22 09:58:01;;;;;;;6.97;3.53;;;;;;;1.05;72.04;99028.25;5032556;28;20036;-60
2022/11/22 10:00:28;;;;;;;8.10;4.40;;;;;;;1.19;72.05;99050.38;5032512;28;20029;-61
2022/11/22 10:03:06;;;;;;;6.57;2.95;;;;;;;1.39;71.77;99051.91;5031738;28;20116;-61
2022/11/22 10:05:43;;;;;;;7.03;3.90;;;;;;;1.21;72.21;99044.09;5032721;28;20420;-57
2022/11/22 10:08:30;;;;;;;6.82;4.10;;;;;;;1.38;72.09;99063.41;5032729;28;20026;-60
2022/11/22 10:10:58;;;;;;;9.85;4.07;;;;;;;1.30;72.34;99050.63;5032779;28;20773;-60
2022/11/22 10:13:34;;;;;;;8.10;4.10;;;;;;;1.32;72.54;99050.56;5032499;28;20034;-59
2022/11/22 10:16:24;;;;;;;9.27;3.65;;;;;;;1.38;72.21;99052.84;5035657;28;20028;-58
2022/11/22 10:18:56;;;;;;;6.93;3.05;;;;;;;1.42;71.79;99036.78;5052481;28;20037;-61
2022/11/22 10:21:21;;;;;;;6.13;2.58;;;;;;;1.55;71.40;99058.06;5051779;28;20029;-59
2022/11/22 10:23:47;;;;;;;8.57;3.40;;;;;;;1.36;71.67;99045.03;5041983;28;20025;-56
2022/11/22 10:26:31;;;;;;;5.10;2.72;;;;;;;1.55;71.98;99052.78;5050161;28;20726;-56
2022/11/22 10:29:14;;;;;;;5.13;3.42;;;;;;;1.38;72.31;99044.94;5033269;28;20029;-59
2022/11/22 10:31:53;;;;;;;5.65;2.88;;;;;;;1.48;71.97;99047.91;5039756;28;20065;-55
2022/11/22 10:34:24;;;;;;;6.95;3.25;;;;;;;1.42;72.03;99041.19;5031601;28;20037;-59
2022/11/22 10:37:26;;;;;;;10.90;3.50;;;;;;;1.43;71.67;99024.44;5032060;28;20037;-61
2022/11/22 10:40:13;;;;;;;10.02;3.60;;;;;;;1.49;72.65;99029.38;5031449;28;20037;-62
2022/11/22 10:43:06;;;;;;;5.65;3.20;;;;;;;1.49;72.60;99025.88;5031551;28;20033;-58
2022/11/22 10:45:38;;;;;;;7.22;2.63;;;;;;;1.61;71.85;99019.94;5032864;28;20360;-59
2022/11/22 10:48:16;;;;;;;6.13;3.35;;;;;;;1.57;72.62;99019.25;5048011;28;20452;-62
2022/11/22 10:51:43;;;;;;;6.88;3.85;;;;;;;1.71;72.54;99021.09;5041282;28;20049;-60
2022/11/22 10:54:17;;;;;;;3.47;2.30;;;;;;;1.97;71.19;99026.66;5041505;28;20029;-60
2022/11/22 10:57:02;;;;;;;5.32;3.45;;;;;;;1.67;71.56;98977.34;5038651;28;20077;-62
2022/11/22 10:59:34;;;;;;;6.22;3.60;;;;;;;1.48;71.86;98971.41;5032114;28;20524;-58
2022/11/22 11:02:15;;;;;;;10.18;3.78;;;;;;;1.70;72.64;99000.91;5039877;28;20037;-55
2022/11/22 11:04:42;;;;;;;9.38;3.53;;;;;;;1.75;71.82;98999.81;5051702;28;20371;-60
2022/11/22 11:07:19;;;;;;;5.90;3.92;;;;;;;1.71;72.19;98984.16;5047257;28;20582;-58
2022/11/22 11:09:48;;;;;;;6.82;4.13;;;;;;;1.73;72.42;98989.34;5051861;28;20029;-59
2022/11/22 11:12:22;;;;;;;7.82;4.45;;;;;;;1.71;72.63;98980.66;5051977;28;20033;-58
2022/11/22 11:14:54;;;;;;;11.07;4.97;;;;;;;1.60;72.92;98980.41;5052245;28;20029;-59
2022/11/22 11:17:25;;;;;;;6.47;4.68;;;;;;;1.62;73.39;98973.28;5042079;28;20069;-57
2022/11/22 11:19:54;;;;;;;8.82;4.82;;;;;;;1.63;72.50;98975.84;5032233;28;20059;-59
2022/11/22 11:22:24;;;;;;;11.50;4.88;;;;;;;1.71;72.84;98975.41;5032210;28;20026;-58
2022/11/22 11:24:50;;;;;;;6.82;4.10;;;;;;;1.77;72.40;98985.59;5032155;28;20437;-59
2022/11/22 11:27:18;;;;;;;6.22;4.00;;;;;;;1.77;72.67;98982.09;5043018;28;20108;-61
2022/11/22 11:29:53;;;;;;;9.30;4.00;;;;;;;1.80;72.47;98998.59;5051405;28;20069;-59
2022/11/22 11:32:19;;;;;;;;;;;;;;;2.07;71.06;98974.16;5044931;28;20034;-58
2022/11/22 11:34:56;;;;;;;6.65;4.25;;;;;;;1.62;71.98;98954.81;5036043;28;19909;-61
2022/11/22 11:37:25;;;;;;;7.20;3.88;;;;;;;1.78;72.13;98974.09;5035909;28;20033;-57
2022/11/22 11:39:50;;;;;;;9.48;4.18;;;;;;;1.77;72.76;98975.03;5035204;28;20098;-59
2022/11/22 11:42:26;;;;;;;7.22;3.85;;;;;;;1.85;72.34;98978.06;5048675;28;20354;-58
2022/11/22 11:44:53;;;;;;;6.38;3.85;;;;;;;1.77;72.67;98971.53;5042009;28;20050;-60
2022/11/22 11:47:38;;;;;;;6.68;3.80;;;;;;;1.92;72.45;98980.34;5053873;28;20120;-58
2022/11/22 11:50:17;;;;;;;8.32;4.20;;;;;;;1.89;72.44;98967.31;5054141;28;20044;-59